»·PEaware :: N960R KLAX-KSNA

N960R :: KLAX-KSNA

FLIGHT INFORMATION

Flight Status: Arrived
Operator: Privately registered:
United States
More flights under this callsign
Pilot: Erik N. (24851)
Aircraft: SOCATA TBM-900
(TBM9)
More flights by this aircraft type
Origin: KLAX Los Angeles Intl
United States
Destination: KSNA John Wayne-Orange Co
United States
More flights between these airports :: More routes between these airports
Route: +SLI8 SLI
File this flight plan on PilotEdge
Remarks: I-6 Rating
Altitude:
(Current/Filed)
5,000ft
Speed:
(Current/Filed)
150kts
Departed: 03-Dec-19 09:32 AM
Arrived: 03-Dec-19 10:10 AM
Distance/Time
Traveled:
31nm/0:38
Distance/Time
To Go:
Arrived

Flight Plot

Page will automatically refresh every two minutes.

Flight plan parsing failed; only flown route is shown


Map Options




Map Legend


Flown Route
Filed Route
Departure Airport
Arrival Airport
Navaid (VOR, NDB)
Fix

Horizontal Profiles

Position Reports

Time Latitude Longitude Heading Altitude Ground
Speed
03-Dec-19 09:04 33.933645 -118.399304 174 110ft 0kts
03-Dec-19 09:05 33.933645 -118.399304 174 110ft 0kts
03-Dec-19 09:06 33.933645 -118.399304 174 110ft 0kts
03-Dec-19 09:07 33.933645 -118.399304 174 110ft 0kts
03-Dec-19 09:08 33.933645 -118.399304 174 110ft 0kts
03-Dec-19 09:09 33.933645 -118.399304 174 110ft 0kts
03-Dec-19 09:10 33.933645 -118.399304 174 110ft 0kts
03-Dec-19 09:11 33.933645 -118.399304 174 110ft 0kts
03-Dec-19 09:12 33.933645 -118.399304 174 110ft 0kts
03-Dec-19 09:13 33.933645 -118.399304 174 110ft 0kts
03-Dec-19 09:14 33.933645 -118.399304 174 110ft 0kts
03-Dec-19 09:15 33.933645 -118.399304 174 110ft 0kts
03-Dec-19 09:16 33.933645 -118.399304 174 110ft 0kts
03-Dec-19 09:17 33.933645 -118.399304 174 110ft 0kts
03-Dec-19 09:18 33.933645 -118.399304 174 110ft 0kts
03-Dec-19 09:19 33.933645 -118.399304 174 110ft 0kts
03-Dec-19 09:20 33.933645 -118.399304 174 110ft 0kts
03-Dec-19 09:21 33.933645 -118.399304 174 110ft 0kts
03-Dec-19 09:22 33.933645 -118.399304 174 110ft 0kts
03-Dec-19 09:23 33.933645 -118.399304 174 110ft 0kts
03-Dec-19 09:24 33.933434 -118.398758 34 109ft 9kts
03-Dec-19 09:25 33.934782 -118.396009 80 105ft 13kts
03-Dec-19 09:26 33.935440 -118.389457 82 100ft 24kts
03-Dec-19 09:27 33.936083 -118.383679 77 96ft 12kts
03-Dec-19 09:28 33.936326 -118.382884 35 95ft 0kts
03-Dec-19 09:29 33.936581 -118.382812 357 95ft 10kts
03-Dec-19 09:30 33.937166 -118.384573 264 97ft 34kts
03-Dec-19 09:31 33.933757 -118.421562 265 567ft 134kts
03-Dec-19 09:32 33.928509 -118.466631 263 1366ft 145kts
03-Dec-19 09:33 33.922568 -118.518056 263 2647ft 163kts
03-Dec-19 09:34 33.885228 -118.533216 172 3882ft 166kts
03-Dec-19 09:35 33.837490 -118.526459 172 5018ft 186kts
03-Dec-19 09:36 33.787862 -118.518046 172 4996ft 176kts
03-Dec-19 09:37 33.739895 -118.508726 172 4998ft 173kts
03-Dec-19 09:38 33.692237 -118.499251 172 4990ft 173kts
03-Dec-19 09:39 33.644741 -118.489548 172 4989ft 173kts
03-Dec-19 09:40 33.604575 -118.466832 94 4992ft 174kts
03-Dec-19 09:41 33.610329 -118.409086 81 4991ft 175kts
03-Dec-19 09:42 33.616734 -118.351217 81 4989ft 175kts
03-Dec-19 09:43 33.641422 -118.302282 54 4990ft 173kts
03-Dec-19 09:44 33.668857 -118.254579 54 4988ft 173kts
03-Dec-19 09:45 33.696091 -118.207128 54 4985ft 172kts
03-Dec-19 09:46 33.723157 -118.159908 54 4985ft 171kts
03-Dec-19 09:47 33.750263 -118.112557 54 4983ft 171kts
03-Dec-19 09:48 33.777411 -118.065073 54 4981ft 172kts
03-Dec-19 09:49 33.799586 -118.014345 63 4981ft 172kts
03-Dec-19 09:50 33.820439 -117.962528 63 4981ft 172kts
03-Dec-19 09:51 33.841268 -117.910691 63 4981ft 172kts
03-Dec-19 09:52 33.862102 -117.858762 63 4981ft 172kts
03-Dec-19 09:53 33.882901 -117.806840 63 4984ft 172kts
03-Dec-19 09:54 33.903800 -117.754589 63 4558ft 172kts
03-Dec-19 09:55 33.927896 -117.706693 28 3838ft 166kts
03-Dec-19 09:56 33.967541 -117.680702 27 3377ft 152kts
03-Dec-19 09:57 34.004526 -117.656545 27 3394ft 152kts
03-Dec-19 09:58 34.037398 -117.662158 269 3397ft 154kts
03-Dec-19 09:59 34.004684 -117.692738 207 3394ft 158kts
03-Dec-19 10:00 33.964058 -117.700874 155 3410ft 158kts
03-Dec-19 10:01 33.924645 -117.710540 208 3495ft 156kts
03-Dec-19 10:02 33.885653 -117.735259 208 3491ft 159kts
03-Dec-19 10:03 33.844577 -117.761366 208 2702ft 190kts
03-Dec-19 10:04 33.800178 -117.789474 208 2167ft 155kts
03-Dec-19 10:05 33.765362 -117.811515 208 2200ft 134kts
03-Dec-19 10:06 33.735091 -117.829575 207 2143ft 117kts
03-Dec-19 10:07 33.709780 -117.846905 207 1183ft 112kts
03-Dec-19 10:08 33.683138 -117.864064 207 119ft 96kts
03-Dec-19 10:09 33.672056 -117.872200 256 59ft 11kts
03-Dec-19 10:10 33.671888 -117.873778 22 59ft 0kts
03-Dec-19 10:11 33.671888 -117.873778 22 59ft 0kts
03-Dec-19 10:12 33.671888 -117.873778 22 59ft 0kts
03-Dec-19 10:13 33.671888 -117.873778 22 59ft 0kts

Navigation Log

Ident Type
Flight plan parsing failed, navigation log unavailable